Labrador City, Canada
Current Conditions -  °F | °C
As of 12:00 PM on Sunday 23 Nov 2014 (Local Time) from CYWK Reporting Station
Few Clouds Few Clouds  
Wind Chill: -2°   Ceiling: Unl
Heat Index: 12°   Visibility: 15mi
Dew Point:   Wind: 12mph
Humidity: 67%   Direction: 260°W
Pressure: 29.69"   Gusts: NA
Location:  52.95°N, 66.91°W
Report Text: CYWK 231600Z 26010KT 15SM FEW020 M11/M16 A2969 RMK SF1 SF TR SLP096
Loading
Personal Weather Stations






























Interactive Weather Map New forecast layout! Learn more

10-Day Weather Forecast

Advertisements
Track Severe Weather on mobile